createdAt,value
2019-02-20T00:01:38.563Z,10.60
2019-02-20T00:04:11.869Z,11.07
2019-02-20T00:06:44.820Z,10.30
2019-02-20T00:09:17.710Z,10.20
2019-02-20T00:11:50.792Z,10.90
2019-02-20T00:14:23.830Z,10.03
2019-02-20T00:16:56.722Z,10.33
2019-02-20T00:19:29.241Z,10.57
2019-02-20T00:22:01.909Z,10.27
2019-02-20T00:24:34.393Z,10.87
2019-02-20T00:27:06.717Z,10.27
2019-02-20T00:29:39.404Z,11.13
2019-02-20T00:32:12.019Z,11.27
2019-02-20T00:34:44.768Z,10.30
2019-02-20T00:37:17.172Z,10.10
2019-02-20T00:39:49.805Z,10.23
2019-02-20T00:42:22.276Z,11.03
2019-02-20T00:45:12.620Z,10.77
2019-02-20T00:48:10.057Z,11.20
2019-02-20T00:50:43.166Z,11.40
2019-02-20T00:53:40.181Z,11.60
2019-02-20T00:56:12.497Z,11.87
2019-02-20T00:58:44.866Z,11.70
2019-02-20T01:01:17.372Z,12.27
2019-02-20T01:03:49.836Z,12.60
2019-02-20T01:06:22.727Z,12.00
2019-02-20T01:08:55.273Z,13.50
2019-02-20T01:11:27.714Z,12.43
2019-02-20T01:14:00.551Z,11.50
2019-02-20T01:16:32.892Z,12.63
2019-02-20T01:19:05.479Z,12.33
2019-02-20T01:21:38.026Z,12.70
2019-02-20T01:24:10.823Z,12.20
2019-02-20T01:26:43.304Z,12.83
2019-02-20T01:29:16.142Z,12.43
2019-02-20T01:31:48.459Z,12.23
2019-02-20T01:34:21.026Z,12.77
2019-02-20T01:36:53.688Z,12.37
2019-02-20T01:39:26.236Z,12.40
2019-02-20T01:41:58.716Z,12.30
2019-02-20T01:44:31.391Z,13.33
2019-02-20T01:47:03.876Z,12.50
2019-02-20T01:49:43.461Z,11.83
2019-02-20T01:52:16.172Z,11.10
2019-02-20T01:54:48.726Z,12.33
2019-02-20T01:57:21.165Z,12.47
2019-02-20T01:59:53.486Z,10.60
2019-02-20T02:02:26.117Z,11.73
2019-02-20T02:04:58.638Z,11.47
2019-02-20T02:07:31.315Z,12.23
2019-02-20T02:10:03.849Z,11.23
2019-02-20T02:12:38.912Z,11.83
2019-02-20T02:15:20.045Z,12.27
2019-02-20T02:17:45.628Z,12.00
2019-02-20T02:20:18.513Z,11.80
2019-02-20T02:22:51.058Z,10.90
2019-02-20T02:25:23.538Z,11.03
2019-02-20T02:27:56.231Z,11.87
2019-02-20T02:30:28.525Z,10.87
2019-02-20T02:33:01.175Z,10.83
2019-02-20T02:35:34.004Z,11.10
2019-02-20T02:38:06.451Z,10.83
2019-02-20T02:40:38.788Z,10.50
2019-02-20T02:43:11.074Z,11.20
2019-02-20T02:45:43.434Z,11.27
2019-02-20T02:48:15.819Z,10.70
2019-02-20T02:50:48.242Z,10.87
2019-02-20T02:53:30.027Z,10.80
2019-02-20T02:55:55.097Z,10.33
2019-02-20T02:58:27.903Z,11.30
2019-02-20T03:01:00.462Z,10.43
2019-02-20T03:03:32.808Z,9.93
2019-02-20T03:06:05.377Z,11.33
2019-02-20T03:08:37.692Z,11.60
2019-02-20T03:11:10.281Z,10.57
2019-02-20T03:13:42.739Z,10.07
2019-02-20T03:16:15.124Z,11.03
2019-02-20T03:18:48.346Z,10.20
2019-02-20T03:21:20.987Z,10.43
2019-02-20T03:23:53.529Z,11.13
2019-02-20T03:26:25.954Z,10.90
2019-02-20T03:28:58.694Z,11.43
2019-02-20T03:31:31.087Z,11.00
2019-02-20T03:34:03.846Z,10.83
2019-02-20T03:36:36.562Z,10.60
2019-02-20T03:39:09.668Z,10.77
2019-02-20T03:41:42.033Z,11.60
2019-02-20T03:44:14.457Z,10.73
2019-02-20T03:46:47.134Z,11.70
2019-02-20T03:49:19.578Z,11.10
2019-02-20T03:51:52.278Z,10.90
2019-02-20T03:54:24.651Z,11.30
2019-02-20T03:56:56.989Z,11.63
2019-02-20T03:59:29.555Z,12.10
2019-02-20T04:02:01.956Z,10.40
2019-02-20T04:04:34.505Z,11.87
2019-02-20T04:07:07.055Z,12.17
2019-02-20T04:09:39.622Z,11.57
2019-02-20T04:12:13.874Z,11.63
2019-02-20T04:14:46.731Z,12.27
2019-02-20T04:17:19.231Z,12.30
2019-02-20T04:19:51.761Z,11.87
2019-02-20T04:22:24.174Z,12.20
2019-02-20T04:24:56.634Z,12.30
2019-02-20T04:27:29.140Z,11.47
2019-02-20T04:30:01.761Z,11.30
2019-02-20T04:32:34.285Z,11.50
2019-02-20T04:35:07.019Z,11.17
2019-02-20T04:37:39.545Z,11.17
2019-02-20T04:40:12.060Z,11.20
2019-02-20T04:42:44.566Z,11.07
2019-02-20T04:45:17.117Z,11.07
2019-02-20T04:47:49.791Z,10.30
2019-02-20T04:50:22.276Z,10.77
2019-02-20T04:52:54.815Z,10.70
2019-02-20T04:55:27.528Z,10.90
2019-02-20T04:58:24.557Z,10.53
2019-02-20T05:00:57.159Z,10.93
2019-02-20T05:03:29.790Z,11.83
2019-02-20T05:06:02.199Z,12.97
2019-02-20T05:08:35.561Z,13.17
2019-02-20T05:11:08.176Z,10.97
2019-02-20T05:13:40.623Z,11.20
2019-02-20T05:16:13.279Z,11.67
2019-02-20T05:18:45.948Z,12.90
2019-02-20T05:21:18.680Z,11.63
2019-02-20T05:23:51.514Z,10.50
2019-02-20T05:26:24.231Z,11.40
2019-02-20T05:28:56.785Z,11.03
2019-02-20T05:31:29.276Z,10.57
2019-02-20T05:34:01.658Z,10.70
2019-02-20T05:36:34.551Z,10.00
2019-02-20T05:39:08.316Z,10.53
2019-02-20T05:41:40.705Z,11.03
2019-02-20T05:44:13.415Z,10.67
2019-02-20T05:46:46.257Z,11.50
2019-02-20T05:49:18.790Z,11.00
2019-02-20T05:51:51.564Z,10.90
2019-02-20T05:54:33.857Z,12.87
2019-02-20T05:56:58.175Z,13.27
2019-02-20T05:59:30.848Z,10.47
2019-02-20T06:02:03.446Z,11.70
2019-02-20T06:04:36.519Z,11.93
2019-02-20T06:07:09.222Z,11.70
2019-02-20T06:09:42.065Z,12.53
2019-02-20T06:12:14.735Z,13.83
2019-02-20T06:14:47.174Z,11.37
2019-02-20T06:17:19.802Z,10.40
2019-02-20T06:19:52.424Z,9.77
2019-02-20T06:22:26.494Z,9.70
2019-02-20T06:24:59.578Z,10.47
2019-02-20T06:27:32.201Z,10.17
2019-02-20T06:30:06.362Z,9.40
2019-02-20T06:32:39.312Z,9.80
2019-02-20T06:35:11.951Z,9.67
2019-02-20T06:37:44.571Z,9.67
2019-02-20T06:40:16.952Z,9.30
2019-02-20T06:42:49.526Z,9.40
2019-02-20T06:45:22.148Z,9.03
2019-02-20T06:47:54.855Z,9.40
2019-02-20T06:50:31.110Z,9.27
2019-02-20T06:53:03.598Z,9.30
2019-02-20T06:55:37.758Z,8.73
2019-02-20T06:58:10.220Z,8.57
2019-02-20T07:00:42.619Z,8.53
2019-02-20T07:03:14.942Z,8.03
2019-02-20T07:06:18.599Z,8.23
2019-02-20T07:09:33.566Z,8.33
2019-02-20T07:13:04.329Z,8.60
2019-02-20T07:16:06.858Z,8.63
2019-02-20T07:19:07.271Z,8.97
2019-02-20T07:22:37.386Z,9.30
2019-02-20T07:25:44.266Z,8.03
2019-02-20T07:29:17.951Z,22.67
2019-02-20T07:31:50.669Z,9.00
2019-02-20T07:34:23.411Z,8.63
2019-02-20T07:36:55.850Z,9.13
2019-02-20T07:39:28.357Z,8.03
2019-02-20T07:42:01.264Z,8.63
2019-02-20T07:44:35.150Z,8.50
2019-02-20T07:47:07.459Z,8.50
2019-02-20T07:49:39.976Z,8.27
2019-02-20T07:52:12.377Z,8.23
2019-02-20T07:54:45.128Z,8.70
2019-02-20T07:57:17.665Z,8.03
2019-02-20T07:59:50.039Z,8.53
2019-02-20T08:02:22.599Z,7.93
2019-02-20T08:04:54.995Z,7.93
2019-02-20T08:07:27.583Z,7.83
2019-02-20T08:09:59.896Z,7.80
2019-02-20T08:12:32.554Z,8.43
2019-02-20T08:15:04.987Z,7.80
2019-02-20T08:17:37.515Z,7.83
2019-02-20T08:20:11.647Z,8.20
2019-02-20T08:22:44.141Z,8.50
2019-02-20T08:25:22.829Z,8.80
2019-02-20T08:27:51.063Z,8.50
2019-02-20T08:30:23.598Z,8.27
2019-02-20T08:32:56.208Z,7.77
2019-02-20T08:35:29.132Z,8.30
2019-02-20T08:38:01.854Z,8.77
2019-02-20T08:40:34.695Z,7.75
2019-02-20T08:43:07.323Z,8.00
2019-02-20T08:45:39.915Z,8.03
2019-02-20T08:48:12.382Z,9.48
2019-02-20T08:50:44.990Z,8.05
2019-02-20T08:53:17.458Z,8.43
2019-02-20T08:55:49.992Z,8.63
2019-02-20T08:58:22.709Z,8.88
2019-02-20T09:00:55.039Z,8.63
2019-02-20T09:03:28.690Z,9.57
2019-02-20T09:06:01.053Z,9.20
2019-02-20T09:08:33.508Z,9.60
2019-02-20T09:11:06.066Z,9.83
2019-02-20T09:13:38.734Z,9.43
2019-02-20T09:16:11.296Z,10.07
2019-02-20T09:18:43.931Z,10.50
2019-02-20T09:21:17.161Z,9.70
2019-02-20T09:23:51.232Z,11.57
2019-02-20T09:26:24.015Z,12.70
2019-02-20T09:28:56.905Z,10.67
2019-02-20T09:31:29.796Z,12.30
2019-02-20T09:34:02.228Z,17.00
2019-02-20T09:36:34.872Z,11.47
2019-02-20T09:39:35.977Z,10.70
2019-02-20T09:42:14.741Z,11.10
2019-02-20T09:44:50.863Z,10.83
2019-02-20T09:47:23.386Z,10.27
2019-02-20T09:49:55.793Z,11.30
2019-02-20T09:52:28.356Z,10.67
2019-02-20T09:55:00.973Z,10.80
2019-02-20T09:57:33.447Z,12.23
2019-02-20T10:00:07.889Z,12.33
2019-02-20T10:02:40.186Z,11.00
2019-02-20T10:05:13.108Z,11.23
2019-02-20T10:07:45.609Z,10.33
2019-02-20T10:10:18.215Z,11.30
2019-02-20T10:12:50.694Z,10.80
2019-02-20T10:15:23.428Z,11.13
2019-02-20T10:17:55.928Z,12.20
2019-02-20T10:20:28.640Z,10.57
2019-02-20T10:23:01.221Z,11.00
2019-02-20T10:25:33.643Z,9.77
2019-02-20T10:28:06.214Z,9.77
2019-02-20T10:30:38.886Z,10.23
2019-02-20T10:33:11.372Z,10.53
2019-02-20T10:35:43.784Z,10.90
2019-02-20T10:38:16.315Z,10.33
2019-02-20T10:40:48.992Z,26.97
2019-02-20T10:43:21.468Z,12.83
2019-02-20T10:45:53.953Z,10.43
2019-02-20T10:48:26.399Z,9.90
2019-02-20T10:50:58.901Z,11.10
2019-02-20T10:53:31.660Z,9.87
2019-02-20T10:56:09.461Z,9.40
2019-02-20T10:58:38.577Z,9.50
2019-02-20T11:01:11.386Z,11.27
2019-02-20T11:03:44.087Z,10.87
2019-02-20T11:06:16.743Z,10.60
2019-02-20T11:08:50.529Z,12.00
2019-02-20T11:11:23.038Z,10.73
2019-02-20T11:13:55.485Z,9.47
2019-02-20T11:16:28.007Z,10.37
2019-02-20T11:19:00.548Z,10.27
2019-02-20T11:21:33.175Z,10.00
2019-02-20T11:24:05.575Z,10.17
2019-02-20T11:26:46.232Z,10.57
2019-02-20T11:29:12.285Z,10.63
2019-02-20T11:31:44.780Z,10.93
2019-02-20T11:34:17.245Z,11.30
2019-02-20T11:36:50.610Z,11.10
2019-02-20T11:39:23.470Z,11.07
2019-02-20T11:41:56.031Z,10.27
2019-02-20T11:44:28.399Z,10.93
2019-02-20T11:47:00.716Z,9.93
2019-02-20T11:49:33.344Z,10.73
2019-02-20T11:52:05.875Z,11.00
2019-02-20T11:54:38.495Z,10.87
2019-02-20T11:57:11.419Z,11.47
2019-02-20T11:59:44.180Z,11.80
2019-02-20T12:02:16.890Z,10.80
2019-02-20T12:04:49.368Z,11.20
2019-02-20T12:07:21.788Z,12.07
2019-02-20T12:09:54.490Z,10.93
2019-02-20T12:12:27.098Z,10.80
2019-02-20T12:14:59.652Z,11.43
2019-02-20T12:17:32.543Z,10.87
2019-02-20T12:20:05.129Z,11.20
2019-02-20T12:22:37.747Z,10.10
2019-02-20T12:25:10.372Z,10.00
2019-02-20T12:27:42.881Z,10.27
2019-02-20T12:30:15.328Z,9.00
2019-02-20T12:32:47.826Z,10.00
2019-02-20T12:35:20.119Z,9.27
2019-02-20T12:37:52.670Z,9.63
2019-02-20T12:40:25.121Z,9.87
2019-02-20T12:42:57.670Z,10.33
2019-02-20T12:45:30.306Z,9.93
2019-02-20T12:48:04.449Z,9.80
2019-02-20T12:50:47.927Z,10.50
2019-02-20T12:53:20.412Z,9.30
2019-02-20T12:55:52.867Z,9.93
2019-02-20T12:58:25.391Z,9.80
2019-02-20T13:00:58.726Z,9.00
2019-02-20T13:03:31.226Z,9.00
2019-02-20T13:06:03.564Z,8.77
2019-02-20T13:08:36.191Z,8.50
2019-02-20T13:11:08.650Z,8.70
2019-02-20T13:13:43.085Z,8.07
2019-02-20T13:16:15.603Z,8.03
2019-02-20T13:18:48.013Z,7.33
2019-02-20T13:21:20.576Z,7.70
2019-02-20T13:23:53.221Z,7.23
2019-02-20T13:26:25.796Z,6.33
2019-02-20T13:28:58.368Z,5.80
2019-02-20T13:31:30.758Z,6.70
2019-02-20T13:34:03.292Z,6.40
2019-02-20T13:36:35.741Z,6.90
2019-02-20T13:39:08.414Z,6.23
2019-02-20T13:41:40.776Z,6.50
2019-02-20T13:44:13.338Z,6.67
2019-02-20T13:46:45.832Z,6.73
2019-02-20T13:49:18.488Z,6.97
2019-02-20T13:51:50.889Z,6.90
2019-02-20T13:54:23.322Z,6.50
2019-02-20T13:57:01.570Z,6.00
2019-02-20T13:59:30.251Z,5.90
2019-02-20T14:02:02.603Z,6.03
2019-02-20T14:04:35.317Z,5.97
2019-02-20T14:07:07.825Z,6.53
2019-02-20T14:09:40.321Z,6.63
2019-02-20T14:12:12.865Z,9.13
2019-02-20T14:14:45.316Z,9.47
2019-02-20T14:17:26.191Z,12.00
2019-02-20T14:19:52.029Z,8.60
2019-02-20T14:22:24.496Z,8.47
2019-02-20T14:24:56.999Z,7.27
2019-02-20T14:27:29.597Z,6.77
2019-02-20T14:30:01.964Z,7.30
2019-02-20T14:32:34.496Z,6.67
2019-02-20T14:35:07.837Z,7.77
2019-02-20T14:37:40.692Z,6.60
2019-02-20T14:40:13.944Z,6.83
2019-02-20T14:42:46.585Z,6.27
2019-02-20T14:45:19.148Z,6.50
2019-02-20T14:47:51.718Z,6.00
2019-02-20T14:50:24.352Z,6.27
2019-02-20T14:52:56.928Z,6.40
2019-02-20T14:55:29.350Z,7.43
2019-02-20T14:58:01.936Z,5.67
2019-02-20T15:00:34.526Z,5.60
2019-02-20T15:03:07.615Z,5.77
2019-02-20T15:05:39.999Z,5.37
2019-02-20T15:08:12.766Z,5.63
2019-02-20T15:10:45.157Z,5.03
2019-02-20T15:13:17.707Z,4.87
2019-02-20T15:15:50.087Z,5.13
2019-02-20T15:18:22.413Z,5.83
2019-02-20T15:20:54.787Z,6.67
2019-02-20T15:23:27.135Z,5.60
2019-02-20T15:25:59.553Z,10.30
2019-02-20T15:28:33.432Z,21.70
2019-02-20T15:31:06.229Z,10.60
2019-02-20T15:33:38.613Z,16.40
2019-02-20T15:36:11.444Z,8.13
2019-02-20T15:38:44.209Z,7.67
2019-02-20T15:41:16.659Z,7.60
2019-02-20T15:43:51.514Z,7.67
2019-02-20T15:46:23.776Z,4.83
2019-02-20T15:48:56.429Z,5.23
2019-02-20T15:51:29.513Z,4.70
2019-02-20T15:54:02.073Z,4.33
2019-02-20T15:56:34.610Z,4.23
2019-02-20T15:59:07.174Z,5.00
2019-02-20T16:01:39.809Z,4.57
2019-02-20T16:04:12.721Z,4.40
2019-02-20T16:06:45.481Z,4.17
2019-02-20T16:09:18.177Z,3.97
2019-02-20T16:11:50.571Z,4.90
2019-02-20T16:14:23.054Z,4.80
2019-02-20T16:16:56.009Z,7.00
2019-02-20T16:19:28.594Z,5.30
2019-02-20T16:22:03.012Z,5.30
2019-02-20T16:24:35.212Z,5.13
2019-02-20T16:27:07.737Z,4.27
2019-02-20T16:29:40.364Z,3.80
2019-02-20T16:32:13.049Z,4.13
2019-02-20T16:34:45.461Z,5.03
2019-02-20T16:37:18.089Z,4.57
2019-02-20T16:39:50.986Z,4.50
2019-02-20T16:42:23.887Z,8.30
2019-02-20T16:44:56.416Z,6.63
2019-02-20T16:47:29.032Z,6.07
2019-02-20T16:50:01.458Z,6.73
2019-02-20T16:52:34.291Z,5.83
2019-02-20T16:55:07.747Z,8.10
2019-02-20T16:57:40.099Z,11.00
2019-02-20T17:00:13.404Z,7.67
2019-02-20T17:02:46.273Z,7.20
2019-02-20T17:05:18.952Z,6.83
2019-02-20T17:07:51.644Z,5.10
2019-02-20T17:10:24.078Z,5.33
2019-02-20T17:12:56.758Z,5.40
2019-02-20T17:15:29.333Z,6.40
2019-02-20T17:18:01.997Z,7.87
2019-02-20T17:20:36.851Z,7.57
2019-02-20T17:23:09.499Z,6.13
2019-02-20T17:25:42.526Z,5.10
2019-02-20T17:28:15.576Z,6.20
2019-02-20T17:30:48.304Z,5.17
2019-02-20T17:33:21.576Z,6.27
2019-02-20T17:35:54.304Z,6.67
2019-02-20T17:38:26.719Z,5.87
2019-02-20T17:40:59.552Z,5.77
2019-02-20T17:43:32.230Z,6.10
2019-02-20T17:46:04.844Z,6.60
2019-02-20T17:48:37.947Z,6.83
2019-02-20T17:51:10.478Z,7.80
2019-02-20T17:53:43.159Z,7.40
2019-02-20T17:56:15.939Z,6.23
2019-02-20T17:58:48.567Z,7.80
2019-02-20T18:01:21.245Z,6.60
2019-02-20T18:03:54.048Z,6.37
2019-02-20T18:06:26.740Z,6.80
2019-02-20T18:08:59.294Z,10.47
2019-02-20T18:11:31.711Z,6.40
2019-02-20T18:14:04.118Z,6.83
2019-02-20T18:16:36.508Z,5.03
2019-02-20T18:19:09.210Z,4.60
2019-02-20T18:21:41.710Z,5.70
2019-02-20T18:24:14.463Z,5.93
2019-02-20T18:26:46.925Z,5.80
2019-02-20T18:29:19.427Z,6.23
2019-02-20T18:31:52.095Z,11.37
2019-02-20T18:34:24.933Z,12.90
2019-02-20T18:36:57.757Z,18.37
2019-02-20T18:39:30.266Z,9.17
2019-02-20T18:42:02.759Z,7.43
2019-02-20T18:44:35.377Z,6.50
2019-02-20T18:47:07.825Z,6.63
2019-02-20T18:49:40.344Z,6.37
2019-02-20T18:52:12.759Z,6.77
2019-02-20T18:54:45.374Z,8.27
2019-02-20T18:57:18.022Z,7.00
2019-02-20T18:59:50.784Z,6.93
2019-02-20T19:02:23.159Z,6.87
2019-02-20T19:04:55.759Z,7.27
2019-02-20T19:07:28.325Z,13.77
2019-02-20T19:10:04.837Z,16.93
2019-02-20T19:13:09.383Z,7.47
2019-02-20T19:16:39.495Z,6.57
2019-02-20T19:19:45.683Z,7.10
2019-02-20T19:23:15.507Z,7.23
2019-02-20T19:26:37.201Z,6.33
2019-02-20T19:30:14.134Z,6.53
2019-02-20T19:33:15.930Z,6.40
2019-02-20T19:36:50.213Z,6.10
2019-02-20T19:39:56.348Z,7.23
2019-02-20T19:43:02.452Z,6.70
2019-02-20T19:46:48.171Z,6.97
2019-02-20T19:50:12.247Z,6.80
2019-02-20T19:54:05.793Z,6.87
2019-02-20T19:57:39.859Z,6.73
2019-02-20T20:01:22.844Z,7.57
2019-02-20T20:05:09.824Z,7.37
2019-02-20T20:08:24.921Z,7.93
2019-02-20T20:12:15.401Z,7.87
2019-02-20T20:15:42.054Z,7.57
2019-02-20T20:19:13.618Z,6.97
2019-02-20T20:22:29.228Z,6.83
2019-02-20T20:25:49.740Z,6.80
2019-02-20T20:29:05.731Z,6.63
2019-02-20T20:32:13.898Z,21.30
2019-02-20T20:35:27.120Z,12.63
2019-02-20T20:38:51.085Z,7.33
2019-02-20T20:42:35.160Z,7.30
2019-02-20T20:45:53.514Z,6.43
2019-02-20T20:48:56.291Z,7.73
2019-02-20T20:52:23.919Z,7.80
2019-02-20T20:56:01.764Z,7.10
2019-02-20T20:59:39.186Z,7.87
2019-02-20T21:02:33.306Z,7.40
2019-02-20T21:06:02.209Z,6.90
2019-02-20T21:08:47.431Z,7.20
2019-02-20T21:12:12.768Z,7.67
2019-02-20T21:15:47.584Z,7.33
2019-02-20T21:19:25.684Z,6.47
2019-02-20T21:22:44.789Z,7.47
2019-02-20T21:26:16.489Z,6.70
2019-02-20T21:29:31.901Z,7.23
2019-02-20T21:32:55.466Z,6.80
2019-02-20T21:36:31.680Z,6.40
2019-02-20T21:39:39.684Z,6.93
2019-02-20T21:43:06.794Z,7.47
2019-02-20T21:46:33.491Z,7.33
2019-02-20T21:49:37.896Z,6.87
2019-02-20T21:53:14.406Z,7.33
2019-02-20T21:56:13.755Z,7.03
2019-02-20T21:59:39.612Z,7.40
2019-02-20T22:03:01.990Z,7.70
2019-02-20T22:06:10.612Z,29.83
2019-02-20T22:10:01.246Z,26.73
2019-02-20T22:13:21.040Z,7.43
2019-02-20T22:16:50.551Z,7.30
2019-02-20T22:20:16.978Z,7.07
2019-02-20T22:23:27.322Z,8.17
2019-02-20T22:27:05.169Z,7.63
2019-02-20T22:30:38.770Z,7.33
2019-02-20T22:33:28.865Z,7.20
2019-02-20T22:36:57.442Z,8.67
2019-02-20T22:40:15.302Z,7.23
2019-02-20T22:43:52.163Z,7.83
2019-02-20T22:47:33.265Z,8.00
2019-02-20T22:50:55.782Z,8.07
2019-02-20T22:54:38.756Z,8.00
2019-02-20T22:57:51.320Z,8.33
2019-02-20T23:01:23.940Z,7.97
2019-02-20T23:04:43.885Z,7.70
2019-02-20T23:08:04.521Z,8.07
2019-02-20T23:11:41.799Z,7.87
2019-02-20T23:14:55.580Z,7.57
2019-02-20T23:17:28.485Z,8.03
2019-02-20T23:20:01.029Z,7.43
2019-02-20T23:22:33.675Z,8.27
2019-02-20T23:25:06.304Z,8.10
2019-02-20T23:27:38.671Z,8.30
2019-02-20T23:30:13.110Z,7.50
2019-02-20T23:32:45.747Z,7.57
2019-02-20T23:35:18.345Z,14.20
2019-02-20T23:37:50.808Z,12.47
2019-02-20T23:40:23.188Z,13.33
2019-02-20T23:42:55.515Z,12.93
2019-02-20T23:45:27.804Z,10.60
2019-02-20T23:48:00.174Z,14.30
2019-02-20T23:50:32.929Z,12.60
2019-02-20T23:53:05.213Z,9.93
2019-02-20T23:55:37.658Z,9.57
2019-02-20T23:58:10.016Z,9.17
